Time;durP1;ratioP1;P1;durP2;ratioP2;P2;SDS_P1;SDS_P2;PMS_P1;PMS_P2;Temp;Humidity;BMP_temperature;BMP_pressure;BME280_temperature;BME280_humidity;BME280_pressure;Samples;Min_cycle;Max_cycle;Signal;HPM_P1;HPM_P2
2021/12/06 00:01:01;;;;;;;49.03;22.75;;;;;;;9.98;74.54;98875.81;5031965;28;20033;-78
2021/12/06 00:03:36;;;;;;;57.42;25.17;;;;;;;9.85;74.50;98879.16;5033069;28;20509;-77
2021/12/06 00:06:02;;;;;;;49.47;24.45;;;;;;;9.96;74.41;98895.47;5033344;28;20036;-78
2021/12/06 00:08:27;;;;;;;51.90;23.83;;;;;;;9.76;74.70;98871.56;5033137;28;20419;-78
2021/12/06 00:10:53;;;;;;;46.38;23.00;;;;;;;9.23;74.89;98810.44;5031818;28;20030;-77
2021/12/06 00:13:22;;;;;;;71.10;28.52;;;;;;;9.88;74.97;98897.22;5033030;28;20037;-77
2021/12/06 00:15:49;;;;;;;63.58;26.60;;;;;;;9.44;74.80;98830.69;5033088;28;20029;-78
2021/12/06 00:18:16;;;;;;;57.10;26.38;;;;;;;9.82;75.09;98899.81;5033084;28;20018;-78
2021/12/06 00:20:41;;;;;;;73.75;29.90;;;;;;;9.78;74.88;98893.28;5031836;28;20115;-78
2021/12/06 00:23:07;;;;;;;59.58;26.10;;;;;;;9.27;75.11;98824.03;5032911;28;20030;-77
2021/12/06 00:25:32;;;;;;;65.00;28.80;;;;;;;9.62;75.34;98864.50;5031450;28;20656;-78
2021/12/06 00:27:58;;;;;;;62.13;27.40;;;;;;;9.40;74.86;98846.06;5032676;28;20021;-78
2021/12/06 00:30:23;;;;;;;62.38;26.48;;;;;;;9.83;75.43;98912.00;5032719;28;20052;-78
2021/12/06 00:32:49;;;;;;;57.97;26.65;;;;;;;9.64;74.78;98865.94;5032565;28;20111;-78
2021/12/06 00:35:21;;;;;;;56.13;25.20;;;;;;;9.81;75.27;98882.38;5032789;28;20061;-78
2021/12/06 00:38:00;;;;;;;63.95;27.60;;;;;;;9.56;74.84;98831.81;5032412;28;20493;-78
2021/12/06 00:40:58;;;;;;;49.65;23.48;;;;;;;9.73;74.88;98875.41;5032607;28;20044;-78
2021/12/06 00:43:24;;;;;;;51.90;25.20;;;;;;;9.56;74.67;98845.81;5010100;28;20526;-78
2021/12/06 00:45:50;;;;;;;48.42;24.05;;;;;;;9.93;74.79;98911.66;5032604;28;20061;-78
2021/12/06 00:48:15;;;;;;;52.47;24.92;;;;;;;9.78;74.37;98899.38;5032392;28;20025;-77
2021/12/06 00:50:43;;;;;;;54.95;22.52;;;;;;;9.61;74.91;98862.88;5032112;28;20025;-78
2021/12/06 00:53:09;;;;;;;48.38;21.95;;;;;;;9.48;74.85;98847.75;5031953;28;20030;-77
2021/12/06 00:55:35;;;;;;;50.42;21.65;;;;;;;9.56;74.75;98840.53;5032528;28;20039;-78
2021/12/06 00:58:01;;;;;;;46.25;21.92;;;;;;;9.91;75.26;98884.69;5032510;28;20495;-77
2021/12/06 01:00:49;;;;;;;37.60;18.40;;;;;;;9.33;74.94;98805.66;5032051;28;20047;-78
2021/12/06 01:03:24;;;;;;;38.83;20.17;;;;;;;9.92;74.33;98897.66;5031631;28;20068;-78
2021/12/06 01:05:49;;;;;;;40.63;20.55;;;;;;;9.51;74.88;98813.13;5032033;28;20414;-77
2021/12/06 01:08:16;;;;;;;37.55;18.25;;;;;;;9.91;75.15;98885.50;5031151;28;20026;-78
2021/12/06 01:10:42;;;;;;;46.10;21.48;;;;;;;9.48;74.60;98811.69;5032121;28;20040;-78
2021/12/06 01:13:07;;;;;;;46.65;20.40;;;;;;;9.54;74.77;98816.19;5031867;28;20030;-78
2021/12/06 01:15:35;;;;;;;46.83;22.02;;;;;;;9.44;74.90;98801.72;5031820;28;20096;-78
2021/12/06 01:18:02;;;;;;;56.70;23.88;;;;;;;9.89;74.59;98866.41;5031716;28;20033;-78
2021/12/06 01:20:31;;;;;;;40.40;19.67;;;;;;;9.54;74.86;98826.75;5031975;28;20065;-77
2021/12/06 01:23:05;;;;;;;49.28;22.38;;;;;;;9.56;75.03;98814.19;5031787;28;20029;-77
2021/12/06 01:30:32;;;;;;;58.17;22.48;;;;;;;9.88;75.16;98851.59;5031834;28;20036;-78
2021/12/06 01:41:08;;;;;;;54.42;21.08;;;;;;;9.81;75.39;98841.00;5031531;28;20040;-78
2021/12/06 01:43:34;;;;;;;41.85;20.60;;;;;;;9.56;75.05;98789.66;5031617;28;20022;-78
2021/12/06 01:45:59;;;;;;;45.38;20.02;;;;;;;9.49;74.98;98763.25;5031406;28;20413;-77
2021/12/06 01:48:25;;;;;;;71.57;22.35;;;;;;;9.82;74.89;98818.09;5031356;28;20068;-77
2021/12/06 01:50:50;;;;;;;45.67;17.88;;;;;;;9.71;74.98;98797.50;5030126;28;20422;-77
2021/12/06 01:53:16;;;;;;;43.55;20.00;;;;;;;9.49;75.48;98776.44;5031282;28;20499;-77
2021/12/06 01:55:42;;;;;;;80.03;22.23;;;;;;;9.41;75.28;98771.28;5031350;28;20518;-77
2021/12/06 01:58:08;;;;;;;96.32;22.90;;;;;;;9.27;75.12;98745.03;5031311;28;20029;-78
2021/12/06 02:00:39;;;;;;;94.82;23.08;;;;;;;9.76;75.50;98819.66;5031233;28;20029;-77
2021/12/06 02:03:05;;;;;;;79.55;23.38;;;;;;;9.75;75.52;98817.22;5031174;28;20028;-78
2021/12/06 02:05:32;;;;;;;48.83;21.02;;;;;;;9.29;75.52;98728.03;5031230;28;20038;-77
2021/12/06 02:07:58;;;;;;;41.83;18.20;;;;;;;9.74;75.07;98794.50;5031146;28;20049;-78
2021/12/06 02:10:25;;;;;;;40.85;19.13;;;;;;;9.42;75.11;98749.22;5031287;28;20110;-78
2021/12/06 02:12:53;;;;;;;47.35;19.90;;;;;;;9.77;75.09;98797.56;5031075;28;20029;-77
2021/12/06 02:18:03;;;;;;;64.63;21.85;;;;;;;9.29;75.33;98745.66;5031213;28;20033;-78
2021/12/06 02:20:30;;;;;;;31.98;16.23;;;;;;;9.72;75.12;98802.59;5033511;28;20048;-78
2021/12/06 02:22:56;;;;;;;35.17;18.90;;;;;;;9.74;75.00;98789.22;5034916;28;20480;-78
2021/12/06 02:25:22;;;;;;;42.42;17.85;;;;;;;9.38;74.96;98729.50;5034985;28;20098;-78
2021/12/06 02:27:50;;;;;;;36.50;17.63;;;;;;;9.75;74.93;98785.59;5033575;28;20487;-77
2021/12/06 02:30:18;;;;;;;37.92;17.00;;;;;;;9.70;74.54;98788.78;5034852;28;20033;-78
2021/12/06 02:32:46;;;;;;;33.10;15.50;;;;;;;9.50;74.74;98749.06;5034826;28;20028;-78
2021/12/06 02:35:16;;;;;;;34.60;17.13;;;;;;;9.67;74.73;98768.09;5034990;28;20030;-78
2021/12/06 02:37:42;;;;;;;32.40;16.20;;;;;;;9.09;74.57;98675.19;5034750;28;20060;-78
2021/12/06 02:40:12;;;;;;;30.85;15.48;;;;;;;9.60;75.21;98769.00;5034875;28;20029;-79
2021/12/06 02:42:38;;;;;;;59.65;18.02;;;;;;;9.34;75.18;98733.53;5034741;28;20028;-78
2021/12/06 02:45:08;;;;;;;33.97;16.40;;;;;;;9.34;74.83;98733.53;5033366;28;20037;-79
2021/12/06 02:47:34;;;;;;;33.47;15.40;;;;;;;9.58;74.77;98779.75;5034387;28;20790;-78
2021/12/06 02:50:06;;;;;;;46.05;15.93;;;;;;;9.08;75.11;98699.88;5034445;28;20033;-78
2021/12/06 02:52:31;;;;;;;;;;;;;;;9.35;75.69;98766.78;5034936;28;20018;-79
2021/12/06 02:54:58;;;;;;;47.38;15.63;;;;;;;9.16;75.24;98727.91;5034589;28;19908;-78
2021/12/06 02:57:34;;;;;;;38.42;15.18;;;;;;;9.17;75.33;98722.44;5034478;28;20075;-78
2021/12/06 03:00:00;;;;;;;39.60;14.85;;;;;;;9.40;75.50;98779.38;5034489;28;20095;-78
2021/12/06 03:02:30;;;;;;;40.85;14.40;;;;;;;9.13;75.13;98730.91;5034166;28;20491;-79
2021/12/06 03:04:56;;;;;;;29.42;14.32;;;;;;;8.97;75.32;98712.75;5034157;28;20022;-78
2021/12/06 03:07:24;;;;;;;27.70;13.15;;;;;;;9.38;75.34;98762.94;5034349;28;20033;-79
2021/12/06 03:09:53;;;;;;;31.08;15.02;;;;;;;9.40;74.88;98761.75;5034106;28;20013;-78
2021/12/06 03:12:22;;;;;;;29.80;13.68;;;;;;;8.98;75.05;98703.84;5033985;28;20510;-78
2021/12/06 03:14:53;;;;;;;30.23;13.45;;;;;;;9.17;75.07;98738.25;5033918;28;20035;-78
2021/12/06 03:17:20;;;;;;;;;;;;;;;9.21;75.54;98775.56;5034556;28;20056;-78
2021/12/06 03:19:47;;;;;;;37.33;13.45;;;;;;;8.86;75.14;98717.47;5034038;28;19952;-79
2021/12/06 03:22:15;;;;;;;38.97;15.05;;;;;;;9.34;75.08;98772.25;5033796;28;20025;-78
2021/12/06 03:24:42;;;;;;;35.30;15.45;;;;;;;8.92;75.12;98700.13;5034027;28;20037;-78
2021/12/06 03:27:08;;;;;;;57.58;18.73;;;;;;;9.37;74.72;98774.50;5034014;28;20082;-79
2021/12/06 03:29:34;;;;;;;31.00;16.00;;;;;;;9.29;74.69;98758.81;5034079;28;20029;-79
2021/12/06 03:32:01;;;;;;;40.03;16.50;;;;;;;8.82;74.91;98674.09;5031565;28;20029;-79
2021/12/06 03:34:26;;;;;;;64.53;19.10;;;;;;;9.29;74.90;98753.53;5033688;28;20071;-78
2021/12/06 03:36:57;;;;;;;49.45;18.85;;;;;;;9.35;74.95;98765.97;5033648;28;20081;-79
2021/12/06 03:39:30;;;;;;;44.50;16.58;;;;;;;8.81;75.06;98690.06;5033840;28;20029;-79
2021/12/06 03:42:01;;;;;;;59.38;18.63;;;;;;;8.88;74.73;98731.25;5033626;28;20414;-78
2021/12/06 03:44:28;;;;;;;37.33;18.08;;;;;;;9.11;75.17;98746.09;5033828;28;20100;-79
2021/12/06 03:46:59;;;;;;;56.60;19.85;;;;;;;8.78;75.30;98688.63;5033485;28;20119;-79
2021/12/06 03:49:24;;;;;;;36.05;19.17;;;;;;;8.96;75.30;98725.09;5032048;28;20505;-78
2021/12/06 03:51:50;;;;;;;32.10;20.17;;;;;;;9.26;75.15;98769.72;5033379;28;20030;-78
2021/12/06 03:54:20;;;;;;;38.15;19.67;;;;;;;9.19;74.71;98744.16;5033236;28;20026;-78
2021/12/06 03:56:47;;;;;;;28.02;16.02;;;;;;;9.10;74.84;98739.19;5033487;28;20025;-78
2021/12/06 03:59:12;;;;;;;29.63;14.57;;;;;;;9.10;74.88;98736.56;5033392;28;20122;-78
2021/12/06 04:01:39;;;;;;;27.85;16.27;;;;;;;9.28;74.90;98759.81;5033028;28;20064;-78
2021/12/06 04:04:06;;;;;;;28.25;14.90;;;;;;;8.98;74.53;98703.84;5032994;28;20022;-78
2021/12/06 04:06:32;;;;;;;26.38;16.42;;;;;;;9.05;74.70;98723.16;5032948;28;20067;-78
2021/12/06 04:08:57;;;;;;;26.60;17.17;;;;;;;9.11;74.63;98728.47;5031779;28;20438;-78
2021/12/06 04:11:23;;;;;;;31.83;18.00;;;;;;;9.04;74.52;98722.31;5033136;28;20033;-78
2021/12/06 04:13:49;;;;;;;28.00;18.35;;;;;;;9.27;74.53;98745.03;5032744;28;20029;-78
2021/12/06 04:16:15;;;;;;;22.48;15.57;;;;;;;8.84;74.63;98680.00;5033039;28;20040;-78
2021/12/06 04:18:40;;;;;;;26.63;16.95;;;;;;;9.01;74.57;98706.09;5031645;28;20025;-78
2021/12/06 04:21:06;;;;;;;24.10;15.88;;;;;;;9.32;74.23;98743.44;5033144;28;20068;-78
2021/12/06 04:23:34;;;;;;;21.52;14.50;;;;;;;9.42;74.33;98756.28;5031631;28;20056;-78
2021/12/06 04:26:00;;;;;;;21.27;15.05;;;;;;;9.13;74.00;98705.41;5032853;28;20018;-78
2021/12/06 04:28:28;;;;;;;19.15;12.35;;;;;;;9.41;73.95;98752.84;5033005;28;20029;-77
2021/12/06 04:30:54;;;;;;;21.30;13.55;;;;;;;9.04;73.95;98708.34;5032888;28;20028;-78
2021/12/06 04:33:20;;;;;;;22.65;14.98;;;;;;;9.38;73.82;98755.03;5032633;28;20414;-78
2021/12/06 04:35:46;;;;;;;20.33;13.73;;;;;;;9.14;73.38;98712.28;5032466;28;20040;-78
2021/12/06 04:38:12;;;;;;;21.83;12.10;;;;;;;9.41;73.75;98758.13;5032706;28;20581;-78
2021/12/06 04:40:38;;;;;;;23.25;12.55;;;;;;;8.94;73.87;98692.06;5032824;28;20101;-78
2021/12/06 04:43:04;;;;;;;21.33;12.63;;;;;;;9.40;73.62;98759.13;5032402;28;20399;-78
2021/12/06 04:45:29;;;;;;;18.05;11.27;;;;;;;9.39;73.67;98757.50;5032585;28;20029;-78
2021/12/06 04:47:56;;;;;;;17.17;11.55;;;;;;;8.74;73.47;98647.91;5032241;28;20485;-77
2021/12/06 04:50:25;;;;;;;18.10;10.80;;;;;;;9.37;73.64;98754.22;5030960;28;20025;-78
2021/12/06 04:52:56;;;;;;;18.42;10.65;;;;;;;9.35;73.48;98758.06;5032332;28;20038;-77
2021/12/06 04:55:30;;;;;;;14.05;9.55;;;;;;;9.32;73.56;98758.44;5032457;28;20029;-78
2021/12/06 04:57:56;;;;;;;18.15;11.77;;;;;;;9.32;73.53;98758.44;5031189;28;20490;-77
2021/12/06 05:00:32;;;;;;;16.67;11.85;;;;;;;8.88;73.33;98694.41;5032084;28;20039;-77
2021/12/06 05:02:58;;;;;;;18.02;10.27;;;;;;;9.17;73.42;98730.34;5031935;28;20026;-77
2021/12/06 05:05:38;;;;;;;19.73;11.00;;;;;;;9.34;72.86;98765.16;5030737;28;20025;-78
2021/12/06 05:08:28;;;;;;;18.48;13.60;;;;;;;9.30;73.12;98760.44;5032273;28;20049;-78
2021/12/06 05:10:55;;;;;;;17.75;12.18;;;;;;;9.32;73.28;98763.72;5031948;28;20047;-78
2021/12/06 05:13:21;;;;;;;19.40;14.68;;;;;;;9.28;73.54;98754.56;5031871;28;20415;-78
2021/12/06 05:15:47;;;;;;;17.50;13.05;;;;;;;9.38;73.25;98778.75;5031984;28;20025;-78
2021/12/06 05:18:13;;;;;;;19.60;12.18;;;;;;;9.14;73.22;98727.28;5032078;28;20018;-78
2021/12/06 05:20:39;;;;;;;20.35;11.60;;;;;;;9.42;73.22;98769.47;5031847;28;20104;-78
2021/12/06 05:23:05;;;;;;;20.02;13.85;;;;;;;9.42;73.16;98765.00;5031754;28;20032;-77
2021/12/06 05:25:31;;;;;;;17.98;12.98;;;;;;;9.46;73.67;98774.16;5031790;28;20029;-77
2021/12/06 05:27:59;;;;;;;21.80;14.98;;;;;;;8.62;73.18;98633.63;5031781;28;20391;-77
2021/12/06 05:30:25;;;;;;;22.35;16.63;;;;;;;9.36;73.24;98751.78;5031706;28;20516;-78
2021/12/06 05:32:52;;;;;;;26.15;17.52;;;;;;;9.55;73.46;98780.13;5031733;28;20146;-77
2021/12/06 05:35:19;;;;;;;35.60;21.13;;;;;;;9.48;72.79;98777.44;5031909;28;20048;-78
2021/12/06 05:37:48;;;;;;;28.50;20.85;;;;;;;9.64;72.96;98775.53;5031345;28;20049;-77
2021/12/06 05:40:21;;;;;;;28.17;19.45;;;;;;;9.65;72.71;98775.34;5031687;28;20053;-78
2021/12/06 05:42:47;;;;;;;25.65;18.13;;;;;;;9.53;72.52;98753.97;5031494;28;20568;-78
2021/12/06 05:45:18;;;;;;;31.98;20.33;;;;;;;9.71;73.24;98773.78;5031523;28;20049;-78
2021/12/06 05:47:44;;;;;;;41.00;28.67;;;;;;;9.72;73.08;98775.41;5031562;28;20494;-77
2021/12/06 05:50:11;;;;;;;58.85;43.70;;;;;;;9.52;72.88;98754.97;5031245;28;20039;-78
2021/12/06 05:52:37;;;;;;;54.90;41.28;;;;;;;9.65;72.85;98779.78;5031179;28;20087;-78
2021/12/06 05:55:04;;;;;;;60.72;46.03;;;;;;;9.40;72.53;98732.78;5030746;28;20026;-77
2021/12/06 05:57:30;;;;;;;60.90;43.97;;;;;;;9.23;72.94;98718.25;5031472;28;20136;-77
2021/12/06 05:59:55;;;;;;;51.75;39.58;;;;;;;9.64;72.29;98786.88;5031537;28;20104;-78
2021/12/06 06:02:22;;;;;;;50.30;39.63;;;;;;;9.40;72.72;98763.56;5030989;28;20029;-78
2021/12/06 06:04:48;;;;;;;43.28;33.63;;;;;;;9.59;72.55;98784.00;5031012;28;20021;-77
2021/12/06 06:07:13;;;;;;;41.40;31.08;;;;;;;9.61;72.54;98782.00;5029979;28;20095;-78
2021/12/06 06:09:39;;;;;;;42.47;32.53;;;;;;;9.61;72.50;98784.63;5031155;28;20029;-78
2021/12/06 06:12:05;;;;;;;39.67;30.15;;;;;;;9.65;72.10;98795.59;5031207;28;20033;-79
2021/12/06 06:14:32;;;;;;;43.95;33.78;;;;;;;9.67;72.08;98780.44;5030784;28;20476;-78
2021/12/06 06:17:07;;;;;;;40.30;32.35;;;;;;;9.70;72.32;98795.88;5031136;28;20025;-78
2021/12/06 06:19:32;;;;;;;37.28;29.63;;;;;;;9.12;72.10;98695.88;5031153;28;20025;-78
2021/12/06 06:21:57;;;;;;;43.08;28.73;;;;;;;9.30;71.86;98713.84;5030921;28;20413;-78
2021/12/06 06:24:23;;;;;;;35.03;27.35;;;;;;;9.57;71.86;98736.75;5031014;28;20029;-78
2021/12/06 06:26:48;;;;;;;39.65;29.70;;;;;;;7.74;72.00;98436.72;5030912;28;20025;-77
2021/12/06 06:29:14;;;;;;;41.10;29.95;;;;;;;9.20;71.79;98665.94;5029611;28;20036;-76
2021/12/06 06:31:39;;;;;;;34.90;27.25;;;;;;;9.47;71.87;98722.28;5031076;28;20026;-77
2021/12/06 06:34:05;;;;;;;33.75;27.15;;;;;;;9.86;71.86;98766.59;5030854;28;20030;-77
2021/12/06 06:36:30;;;;;;;33.90;25.60;;;;;;;9.97;71.98;98779.25;5029435;28;20073;-77
2021/12/06 06:38:56;;;;;;;40.75;29.08;;;;;;;9.81;71.44;98761.91;5030890;28;20027;-77
2021/12/06 06:41:21;;;;;;;41.22;29.98;;;;;;;10.01;71.65;98784.97;5030787;28;20029;-77
2021/12/06 06:43:47;;;;;;;44.53;30.92;;;;;;;9.64;71.89;98722.81;5030699;28;20033;-77
2021/12/06 06:46:12;;;;;;;51.83;35.60;;;;;;;10.06;71.79;98783.38;5030535;28;20096;-77
2021/12/06 06:48:38;;;;;;;48.35;33.67;;;;;;;10.10;72.35;98781.97;5034033;28;20026;-78
2021/12/06 06:51:04;;;;;;;51.70;36.60;;;;;;;9.91;72.15;98748.38;5037624;28;20040;-78
2021/12/06 06:53:29;;;;;;;47.20;36.22;;;;;;;9.75;72.53;98724.94;5038244;28;20163;-78
2021/12/06 06:55:56;;;;;;;53.28;40.55;;;;;;;10.23;72.35;98797.09;5051668;28;20028;-77
2021/12/06 06:58:22;;;;;;;49.33;35.80;;;;;;;9.99;72.66;98750.06;5050422;28;20028;-78
2021/12/06 07:00:48;;;;;;;53.17;37.28;;;;;;;10.00;72.71;98739.31;5044073;28;20035;-78
2021/12/06 07:03:13;;;;;;;53.15;38.63;;;;;;;10.20;72.67;98763.19;5052502;28;20017;-77
2021/12/06 07:05:39;;;;;;;56.72;40.45;;;;;;;10.02;72.94;98716.19;5059744;28;20024;-78
2021/12/06 07:08:06;;;;;;;54.47;39.35;;;;;;;10.02;72.33;98704.84;5056286;28;20096;-77
2021/12/06 07:10:32;;;;;;;48.72;35.28;;;;;;;10.17;72.11;98724.78;5065673;28;20025;-77
2021/12/06 07:13:00;;;;;;;44.72;32.25;;;;;;;10.61;72.63;98778.22;5042950;28;20048;-77
2021/12/06 07:15:29;;;;;;;46.40;34.92;;;;;;;10.36;72.41;98720.66;5061472;28;20037;-76
2021/12/06 07:17:55;;;;;;;47.05;33.00;;;;;;;10.35;72.39;98689.19;5064922;28;20513;-78
2021/12/06 07:20:22;;;;;;;49.10;35.83;;;;;;;10.76;72.02;98748.03;5054929;28;20505;-77
2021/12/06 07:22:51;;;;;;;52.67;33.67;;;;;;;11.20;72.38;98772.34;5045978;28;20035;-78
2021/12/06 07:25:19;;;;;;;47.25;33.05;;;;;;;11.25;71.79;98773.38;5035890;28;20083;-78
2021/12/06 07:27:45;;;;;;;43.60;29.52;;;;;;;11.28;71.95;98780.06;5032368;28;20025;-77
2021/12/06 07:30:12;;;;;;;51.05;31.75;;;;;;;11.25;72.55;98746.94;5049687;28;20147;-77
2021/12/06 07:32:38;;;;;;;42.97;29.73;;;;;;;11.34;72.27;98753.66;5036648;28;20057;-77
2021/12/06 07:35:05;;;;;;;41.88;25.38;;;;;;;11.37;71.89;98752.44;5034640;28;20100;-78
2021/12/06 07:37:30;;;;;;;35.10;23.80;;;;;;;11.05;72.14;98695.88;5035902;28;20049;-77
2021/12/06 07:39:56;;;;;;;35.65;20.38;;;;;;;11.00;72.17;98693.03;5033756;28;20091;-78
2021/12/06 07:42:21;;;;;;;36.13;21.58;;;;;;;10.77;72.04;98651.97;5032943;28;20037;-77
2021/12/06 07:44:48;;;;;;;42.97;25.38;;;;;;;11.32;72.50;98745.13;5036502;28;20091;-77
2021/12/06 07:47:14;;;;;;;42.08;23.48;;;;;;;10.97;72.85;98680.22;5033277;28;20052;-78
2021/12/06 07:49:43;;;;;;;41.33;25.05;;;;;;;11.01;72.40;98689.38;5033606;28;20494;-77
2021/12/06 07:52:09;;;;;;;40.33;24.95;;;;;;;11.32;72.81;98737.19;5031349;28;20056;-78
2021/12/06 07:54:34;;;;;;;43.60;25.20;;;;;;;11.26;72.87;98724.78;5032959;28;20033;-77
2021/12/06 07:57:01;;;;;;;38.88;22.15;;;;;;;11.02;73.11;98683.06;5034158;28;20029;-77
2021/12/06 07:59:26;;;;;;;39.20;22.52;;;;;;;11.15;73.24;98693.69;5044686;28;20536;-78
2021/12/06 08:01:52;;;;;;;32.88;20.38;;;;;;;11.63;73.46;98749.78;5052446;28;20033;-77
2021/12/06 08:04:18;;;;;;;33.35;21.60;;;;;;;11.31;72.77;98689.81;5053430;28;20032;-78
2021/12/06 08:06:43;;;;;;;32.65;21.25;;;;;;;11.79;72.57;98767.09;5041790;28;20040;-78
2021/12/06 08:09:09;;;;;;;32.10;18.80;;;;;;;11.85;72.94;98771.56;5036132;28;20033;-78
2021/12/06 08:11:35;;;;;;;25.95;19.65;;;;;;;11.92;72.71;98764.47;5046387;28;20025;-78
2021/12/06 08:14:02;;;;;;;36.28;21.90;;;;;;;11.88;72.29;98750.00;5039835;28;20394;-78
2021/12/06 08:16:31;;;;;;;39.38;23.73;;;;;;;11.57;72.34;98699.56;5049322;28;20526;-79
2021/12/06 08:18:59;;;;;;;31.33;22.55;;;;;;;11.96;71.84;98765.69;5053895;28;20021;-78
2021/12/06 08:21:25;;;;;;;36.53;22.77;;;;;;;11.99;72.41;98770.56;5043379;28;20063;-77
2021/12/06 08:23:53;;;;;;;32.80;20.88;;;;;;;12.07;72.30;98754.47;5032303;28;20044;-84
2021/12/06 08:26:23;;;;;;;38.30;25.33;;;;;;;12.20;72.34;98763.41;5032024;28;20026;-85
2021/12/06 08:28:49;;;;;;;44.45;26.20;;;;;;;12.23;72.46;98750.56;5035038;28;20029;-84
2021/12/06 08:31:16;;;;;;;45.15;25.40;;;;;;;11.98;72.34;98700.16;5035006;28;20032;-84
2021/12/06 08:33:42;;;;;;;53.35;21.75;;;;;;;12.29;72.75;98749.75;5035870;28;20552;-83
2021/12/06 08:36:09;;;;;;;41.13;23.08;;;;;;;12.23;73.19;98740.00;5041850;28;20037;-83
2021/12/06 08:38:36;;;;;;;36.75;22.90;;;;;;;12.38;72.55;98743.19;5036674;28;20035;-83
2021/12/06 08:41:08;;;;;;;42.20;19.52;;;;;;;12.16;72.23;98702.16;5050381;28;20425;-82
2021/12/06 08:43:33;;;;;;;;;;;;;;;12.42;72.56;98733.00;5052379;28;20458;-83
2021/12/06 08:46:11;;;;;;;31.15;17.25;;;;;;;11.94;72.95;98643.41;5041238;28;19920;-84
2021/12/06 08:48:40;;;;;;;23.63;15.80;;;;;;;11.80;72.22;98606.59;5035658;28;20525;-84
2021/12/06 08:51:10;;;;;;;26.35;15.95;;;;;;;12.45;72.72;98700.00;5047118;28;20039;-83
2021/12/06 08:53:36;;;;;;;20.33;13.23;;;;;;;11.91;73.04;98604.16;5049801;28;20115;-83
2021/12/06 08:56:02;;;;;;;21.83;11.88;;;;;;;12.19;72.92;98666.50;5050234;28;20444;-82
2021/12/06 08:58:27;;;;;;;22.90;12.65;;;;;;;12.46;72.99;98704.28;5047976;28;20037;-83
2021/12/06 09:00:53;;;;;;;30.33;15.63;;;;;;;12.61;73.07;98699.50;5041783;28;20055;-84
2021/12/06 09:03:19;;;;;;;20.45;12.95;;;;;;;11.72;73.04;98563.47;5040794;28;20049;-83
2021/12/06 09:05:47;;;;;;;21.15;11.88;;;;;;;12.65;72.93;98696.25;5043266;28;20060;-83
2021/12/06 09:08:13;;;;;;;17.58;11.63;;;;;;;11.90;72.93;98564.69;5066153;28;20476;-82
2021/12/06 09:10:39;;;;;;;19.77;10.73;;;;;;;12.82;73.37;98687.81;5031648;28;20025;-84
2021/12/06 09:13:05;;;;;;;14.63;10.07;;;;;;;12.59;73.25;98630.06;5036036;28;20029;-83
2021/12/06 09:15:31;;;;;;;12.57;7.38;;;;;;;12.99;72.89;98675.66;5041748;28;20028;-83
2021/12/06 09:17:56;;;;;;;14.45;8.88;;;;;;;13.11;73.16;98678.44;5060521;28;20472;-83
2021/12/06 09:20:27;;;;;;;10.85;5.55;;;;;;;12.82;72.33;98598.56;5040669;28;20041;-85
2021/12/06 09:22:53;;;;;;;15.05;9.88;;;;;;;12.73;71.60;98549.53;5040007;28;20021;-85
2021/12/06 09:25:19;;;;;;;9.60;5.68;;;;;;;13.69;71.09;98663.09;5048576;28;20047;-83
2021/12/06 09:27:45;;;;;;;8.02;6.53;;;;;;;13.46;70.55;98600.09;5031218;28;20078;-84
2021/12/06 09:30:15;;;;;;;9.48;4.47;;;;;;;13.91;69.85;98627.16;5030446;28;20108;-83
2021/12/06 09:32:41;;;;;;;9.45;4.05;;;;;;;13.99;69.31;98639.31;5033504;28;20033;-84
2021/12/06 09:35:06;;;;;;;7.07;4.55;;;;;;;13.82;69.06;98585.22;5031066;28;20033;-82
2021/12/06 09:37:36;;;;;;;13.77;4.03;;;;;;;14.11;68.31;98615.47;5042487;28;20174;-84
2021/12/06 09:40:03;;;;;;;9.23;3.60;;;;;;;14.03;67.74;98573.31;5034449;28;20545;-84
2021/12/06 09:42:33;;;;;;;6.38;3.78;;;;;;;14.41;67.00;98612.88;5030714;28;20052;-84
2021/12/06 09:44:59;;;;;;;10.73;4.53;;;;;;;14.02;66.47;98547.81;5033117;28;20022;-84
2021/12/06 09:47:27;;;;;;;6.30;3.17;;;;;;;14.55;65.10;98599.19;5030610;28;20037;-82
2021/12/06 09:49:52;;;;;;;5.95;2.97;;;;;;;14.92;64.65;98638.94;5031110;28;20498;-83
2021/12/06 09:52:18;;;;;;;8.88;4.72;;;;;;;14.86;64.26;98614.09;5030061;28;20033;-85
2021/12/06 09:54:44;;;;;;;5.68;3.75;;;;;;;14.49;64.29;98523.09;5034574;28;20048;-82
2021/12/06 09:57:10;;;;;;;7.80;4.00;;;;;;;14.77;64.20;98551.66;5038543;28;20487;-83
2021/12/06 09:59:39;;;;;;;7.65;4.22;;;;;;;14.86;63.30;98566.25;5031680;28;20134;-84
2021/12/06 10:02:15;;;;;;;8.35;4.53;;;;;;;14.84;63.87;98533.75;5045398;28;20029;-84
2021/12/06 10:04:47;;;;;;;8.48;4.05;;;;;;;15.44;63.23;98610.66;5037958;28;20029;-83
2021/12/06 10:07:14;;;;;;;12.02;7.43;;;;;;;15.49;62.91;98605.47;5037076;28;20024;-83
2021/12/06 10:09:41;;;;;;;13.65;8.02;;;;;;;15.56;62.50;98587.53;5037143;28;20045;-83
2021/12/06 10:12:08;;;;;;;9.68;6.53;;;;;;;15.62;62.08;98596.50;5047833;28;20504;-84
2021/12/06 10:14:35;;;;;;;8.43;5.65;;;;;;;15.62;61.76;98593.81;5048001;28;20503;-83
2021/12/06 10:17:01;;;;;;;6.45;4.00;;;;;;;15.18;61.33;98504.78;5045837;28;20482;-81
2021/12/06 10:19:27;;;;;;;11.35;7.90;;;;;;;15.71;61.39;98588.94;5046692;28;20033;-82
2021/12/06 10:21:53;;;;;;;12.05;4.90;;;;;;;15.61;61.30;98568.25;5046037;28;20045;-81
2021/12/06 10:24:21;;;;;;;14.60;7.88;;;;;;;15.75;61.18;98580.25;5039213;28;20092;-78
2021/12/06 10:26:47;;;;;;;7.25;4.70;;;;;;;15.68;61.36;98557.47;5048416;28;21042;-78
2021/12/06 10:29:22;;;;;;;6.70;3.55;;;;;;;16.02;61.07;98591.19;5050248;28;20025;-79
2021/12/06 10:31:54;;;;;;;10.40;4.70;;;;;;;15.54;61.00;98527.59;5064779;28;20500;-78
2021/12/06 10:34:27;;;;;;;16.85;11.95;;;;;;;15.92;61.26;98574.19;5047791;28;20025;-79
2021/12/06 10:36:54;;;;;;;13.07;9.05;;;;;;;15.93;60.59;98567.84;5036049;28;20045;-79
2021/12/06 10:39:22;;;;;;;26.77;17.92;;;;;;;15.36;60.40;98463.94;5033288;28;20093;-78
2021/12/06 10:41:53;;;;;;;14.63;9.55;;;;;;;15.82;60.40;98542.88;5040321;28;20494;-78
2021/12/06 10:44:18;;;;;;;10.30;5.07;;;;;;;15.82;60.82;98562.31;5035062;28;20021;-77
2021/12/06 10:46:50;;;;;;;10.48;5.40;;;;;;;15.02;60.52;98439.03;5047568;28;20086;-77
2021/12/06 10:49:18;;;;;;;;;;;;;;;15.68;61.46;98552.97;5041568;28;20417;-78
2021/12/06 10:51:43;;;;;;;11.27;4.55;;;;;;;15.18;61.35;98462.22;5042519;28;20019;-77
2021/12/06 10:54:21;;;;;;;12.32;5.93;;;;;;;15.75;60.85;98552.84;5040314;28;20147;-76
2021/12/06 10:56:51;;;;;;;7.95;3.95;;;;;;;15.73;61.27;98538.97;5039486;28;20494;-77
2021/12/06 10:59:20;;;;;;;6.53;3.00;;;;;;;15.70;61.38;98531.44;5039187;28;20048;-78
2021/12/06 11:01:47;;;;;;;11.02;4.13;;;;;;;15.72;61.73;98538.16;5052506;28;20040;-79
2021/12/06 11:04:17;;;;;;;8.57;3.30;;;;;;;15.70;61.79;98540.25;5038701;28;20029;-78
2021/12/06 11:06:46;;;;;;;10.90;4.85;;;;;;;15.20;62.08;98468.94;5038197;28;20533;-78
2021/12/06 11:09:23;;;;;;;5.40;2.70;;;;;;;15.27;62.03;98504.19;5035949;28;20493;-77
2021/12/06 11:11:51;;;;;;;8.80;4.03;;;;;;;15.27;62.41;98482.91;5044761;28;20017;-77
2021/12/06 11:14:22;;;;;;;8.75;3.75;;;;;;;15.52;62.63;98532.34;5038803;28;20041;-75
2021/12/06 11:16:57;;;;;;;8.63;3.38;;;;;;;15.45;62.99;98531.69;5051660;28;20022;-77
2021/12/06 11:19:25;;;;;;;7.28;3.20;;;;;;;15.36;63.07;98538.41;5048603;28;20110;-78
2021/12/06 11:21:53;;;;;;;8.20;3.40;;;;;;;15.36;63.25;98535.75;5068131;28;20063;-78
2021/12/06 11:24:31;;;;;;;7.93;3.72;;;;;;;15.32;63.12;98542.56;5072217;28;20024;-77
2021/12/06 11:27:26;;;;;;;6.72;3.70;;;;;;;15.27;63.56;98536.09;5038786;28;20029;-77
2021/12/06 11:30:03;;;;;;;7.50;4.22;;;;;;;14.74;63.87;98474.25;5032788;28;20039;-78
2021/12/06 11:32:45;;;;;;;9.48;3.83;;;;;;;15.01;63.66;98503.84;5044070;28;20040;-76
2021/12/06 11:35:19;;;;;;;9.73;4.40;;;;;;;15.07;63.94;98498.44;5050721;28;20037;-78
2021/12/06 11:37:55;;;;;;;15.55;10.30;;;;;;;14.90;63.59;98449.66;5048673;28;20053;-78
2021/12/06 11:40:30;;;;;;;8.35;4.40;;;;;;;14.90;63.95;98462.97;5039775;28;20037;-77
2021/12/06 11:43:05;;;;;;;5.88;3.28;;;;;;;15.32;64.30;98527.41;5033369;28;20095;-78
2021/12/06 11:45:35;;;;;;;5.90;3.75;;;;;;;15.27;63.99;98520.13;5032889;28;20042;-77